Tonopah, Nevada Weather observations

Data are for observation ending at time listed.
 Day   Time    Ave.   Ave.  Ave.  Vector   Max.   Stn.    Total    Solar   Ave.  
  of    of     Air    Rel.  Wind   Wind    Wind   Baro.  Precip.   Rad.    Soil  
Year   Day     Temp.  Hum.  Speed  Dir.    Gust   Pres.                    Temp. 
2014   (PST)    F      %     mph   deg.    mph     mb.     in.     W/m2     F   
------------------------------------------------------------------------------
 263    6:10   63.7    31    3.7   112      5.8   815.1    0.00       7    69.7
 263    6:20   63.1    31    4.3    92      8.6   815.2    0.00       8    69.7
 263    6:30   64.9    30    6.7    77     10.1   815.3    0.00      22    69.6
 263    6:40   65.3    29    7.9    82     12.4   815.4    0.00      48    69.5
 263    6:50   65.0    30    7.8    76     12.7   815.4    0.00      48    69.5
 263    7:00   64.6    30    7.0    75     11.5   815.5    0.00      49    69.4
 263    7:10   64.5    32    6.6    75     11.0   815.5    0.00      39    69.4
 263    7:20   64.4    32    6.6    90     11.8   815.7    0.00      37    69.4
 263    7:30   63.4    39    5.6    94      8.4   815.8    0.00      32    69.4
 263    7:40   61.1    53    3.7   113      5.8   815.8    0.02      30    69.4
 263    7:50   60.7    50    7.1    73     11.4   815.8    0.00      39    69.4
 263    8:00   61.7    47    6.5    70     10.1   815.9    0.00      60    69.4
 263    8:10   62.4    47    7.1    61     10.3   815.7    0.00     333    69.3
 263    8:20   64.2    45    5.6    71      9.7   815.8    0.00     295    69.3
 263    8:30   64.8    44    4.7    78      7.6   816.0    0.00     233    69.3
 263    8:40   65.6    43    3.9    77      7.8   816.1    0.00     220    69.2
 263    8:50   65.7    40    4.5    82      7.2   816.1    0.00     142    69.2
 263    9:00   65.4    42    4.6    85      7.7   816.2    0.00      78    69.1
 263    9:10   64.4    48    5.4   110      9.2   816.6    0.01      62    69.1
 263    9:20   62.4    58    3.8    95      7.7   816.5    0.00      96    69.0
 263    9:30   61.5    64    2.2   174      4.6   816.3    0.00     163    69.0
 263    9:40   62.2    63    3.5   134      8.6   816.4    0.00     160    69.0
 263    9:50   63.2    52    6.2   109     12.0   816.8    0.00      91    68.9
 263   10:00   62.1    57    4.6   111      9.9   816.8    0.01     254    68.9
 263   10:10   62.9    59    2.0   108      4.5   816.5    0.00     506    68.9
 263   10:20   65.5    52    5.1    74     12.6   816.4    0.00     605    68.9
 263   10:30   66.8    48    8.1    75     12.8   816.4    0.00     914    68.9
 263   10:40   67.8    47    8.0    81     12.6   816.4    0.00     785    69.0
 263   10:50   67.9    44    7.2    74     11.1   816.3    0.00     387    69.1
 263   11:00   68.0    43    7.0    82     12.6   816.2    0.00     250    69.2
 263   11:10   68.2    41    6.6    80      9.3   816.1    0.00     368    69.3
 263   11:20   68.5    39    6.3    83     10.9   816.0    0.00     471    69.5
 263   11:30   70.7    37    5.6    79      8.8   815.9    0.00     932    69.7
 263   11:40   71.8    36    5.4    90      9.2   815.8    0.00     868    69.8
 263   11:50   72.2    36    5.6    92     10.7   815.8    0.00     811    69.9
 263   12:00   72.2    36    5.9    88     10.4   815.7    0.00     867    70.1
 263   12:10   73.2    34    5.9    81     11.1   815.4    0.00     905    70.4
 263   12:20   73.1    34    5.9   123     11.3   815.3    0.00     715    70.7
 263   12:30   73.1    33    5.7    99     10.2   815.3    0.00     446    71.0
 263   12:40   72.5    33    4.5   113      8.3   815.2    0.00     346    71.3
 263   12:50   72.4    33    5.7   112     10.1   815.1    0.00     268    71.7
 263   13:00   72.1    33    4.9   109      8.2   815.1    0.00     187    72.0
 263   13:10   72.3    33    5.5   135     10.0   815.3    0.00     236    72.2
 263   13:20   72.5    32    2.5   155      5.3   815.0    0.00     230    72.4
 263   13:30   72.5    32    4.1   142      7.5   814.9    0.00     259    72.6
 263   13:40   73.0    31    2.7   115      6.5   814.6    0.00     307    72.7
 263   13:50   73.5    31    2.8    62      7.7   814.4    0.00     315    72.8
 263   14:00   73.4    31    6.6   126     13.6   814.9    0.00     310    72.9
 263   14:10   73.2    31    6.2   137     10.2   814.9    0.00     219    73.0
 263   14:20   72.5    32    5.6   125     11.2   814.6    0.00     121    73.1
 263   14:30   72.4    32    1.9   176      5.8   814.1    0.00      85    73.2
 263   14:40   72.2    33    2.7   264      5.6   814.2    0.00      75    73.2
 263   14:50   72.0    33    1.9   158      5.5   814.3    0.00      60    73.3
 263   15:00   71.6    33    1.7   165      3.1   814.3    0.00      29    73.3
 263   15:10   71.2    35    2.2   243      5.3   814.1    0.00      19    73.3
 263   15:20   71.0    33    3.3   263      9.2   813.9    0.00      16    73.3
 263   15:30   69.7    34    8.6   187     20.0   814.7    0.00       7    73.3
 263   15:40   65.4    46   10.1   187     20.5   814.8    0.05       8    73.3
 263   15:50   63.8    49    7.0   234     18.0   815.3    0.00      15    73.2
 263   16:00   63.4    51    7.5   232     17.2   815.0    0.00      23    73.1
 263   16:10   61.9    60    6.1   280     10.0   813.9    0.00      24    72.9
 263   16:20   61.8    59    5.9   230     11.0   814.5    0.00      15    72.7
 263   16:30   61.2    65    5.7   271      9.3   815.0    0.00       6    72.5
 263   16:40   60.4    63    7.5   256     13.9   814.9    0.00       4    72.2
 263   16:50   61.0    58    8.8   258     17.2   815.4    0.08       0    72.0
 263   17:00   58.0    70    8.2   252     15.8   815.1    0.01       0    71.7
 263   17:10   58.6    66    6.9   266     19.4   815.0    0.02       0    71.3
 263   17:20   60.2    59    9.4   269     36.8   815.2    0.03       0    71.0
 263   17:30   58.7    65   10.2   255     29.5   815.2    0.02       0    70.7
 263   17:40   58.0    67    7.0    31     18.4   815.5    0.03       0    70.2
 263   17:50   58.1    66    8.7   289     20.2   815.1    0.02       0    69.8
 263   18:00   58.0    68    6.5   281     11.9   814.7    0.00       0    69.4
 263   18:10   57.3    70    6.0   278     11.6   815.0    0.01       0    69.1
 263   18:20   60.1    57    6.8   174     24.5   815.5    0.07       0    68.8
 263   18:30   59.4    61    7.0   238     17.0   814.9    0.01       0    68.5
 263   18:40   59.2    62    4.3   332     22.2   814.9    0.00       0    68.1
 263   18:50   58.9    65    4.3   111     11.8   815.2    0.02       0    67.8
 263   19:00   57.3    74    6.2    54     10.4   815.5    0.01       0    67.6
 263   19:10   56.4    77    5.8    59     10.7   815.5    0.01       0    67.3
 263   19:20   56.9    74    3.0   158      5.6   815.8    0.00       0    67.1
 263   19:30   56.4    80    3.1   307      6.6   815.3    0.00       0    67.0
 263   19:40   55.9    82    4.8   300      8.1   815.1    0.01       0    66.9
 263   19:50   56.0    81    4.9   254      8.5   814.5    0.00       0    66.8
 263   20:00   56.7    75    4.0   266      7.5   814.2    0.00       0    66.7
 263   20:10   57.4    72    4.4   236      7.6   814.6    0.01       0    66.6
 263   20:20   57.3    73    5.6    17     11.6   814.8    0.02       0    66.6
 263   20:30   56.8    74    7.7    36     13.7   814.7    0.01       0    66.5
 263   20:40   56.6    75    5.2    55     10.1   814.7    0.00       0    66.4
 263   20:50   57.4    70    9.2    69     15.6   814.8    0.00       0    66.3
 263   21:00   56.9    73   10.9    66     21.3   815.3    0.00       0    66.2
 263   21:10   56.1    75   11.7    62     21.9   815.5    0.00       0    66.1
 263   21:20   56.1    74   11.7    60     19.1   815.9    0.00       0    66.0
 263   21:30   55.5    77   11.6    42     27.0   815.9    0.00       0    65.9
 263   21:40   54.9    79   12.0    50     20.8   815.9    0.00       0    65.8
 263   21:50   53.9    83   12.1    38     21.9   815.8    0.07       0    65.7
 263   22:00   53.6    84    9.3    33     20.5   815.6    0.00       0    65.5
 263   22:10   54.8    78   11.7    48     22.5   815.7    0.00       0    65.2
 263   22:20   54.5    80   11.6    45     20.0   815.5    0.01       0    65.0
 263   22:30   54.7    78   14.8    44     28.1   815.5    0.00       0    64.8
 263   22:40   54.4    79   16.3    39     28.3   815.5    0.00       0    64.7
 263   22:50   54.5    78   14.5    44     25.5   815.5    0.00       0    64.5
 263   23:00   54.8    77   12.2    45     20.0   815.6    0.00       0    64.4
 263   23:10   54.9    77   11.7    53     19.8   815.7    0.00       0    64.3
 263   23:20   54.8    77    9.6    53     18.7   815.9    0.00       0    64.2
 263   23:30   54.6    78    9.9    52     17.2   815.9    0.00       0    64.1
 263   23:40   54.7    77    8.2    50     14.1   815.9    0.00       0    64.0
 263   23:50   54.5    78    5.6    37     11.8   816.0    0.00       0    63.9
 264    0:00   54.8    77    6.8    26     13.7   816.0    0.00       0    63.8
 264    0:10   54.8    77    4.8    51      9.5   816.0    0.00       0    63.7
 264    0:20   55.0    75    3.8    57      9.1   816.1    0.00       0    63.7
 264    0:30   55.2    75    3.2    58      6.9   816.1    0.00       0    63.6
 264    0:40   55.2    74    6.1    12     10.5   815.7    0.00       0    63.5
 264    0:50   54.8    76    5.7    33      8.9   815.3    0.00       0    63.5
 264    1:00   54.0    80    7.7    31     13.8   815.3    0.00       0    63.5
 264    1:10   53.5    82    7.3    37     12.2   815.2    0.00       0    63.4
 264    1:20   53.4    82    9.1    38     13.7   815.2    0.00       0    63.4
 264    1:30   53.5    81    5.9    30     10.5   815.3    0.00       0    63.3
 264    1:40   53.5    80    2.9    10      7.4   815.4    0.00       0    63.2
 264    1:50   53.3    81    2.0   354      5.0   815.4    0.00       0    63.2
 264    2:00   53.0    82    1.3    26      4.5   815.3    0.00       0    63.1
 264    2:10   52.8    82    1.8   212      4.2   815.3    0.00       0    63.0
 264    2:20   52.7    81    2.1   206      3.9   815.4    0.00       0    62.9
 264    2:30   52.8    80    1.7   298      4.5   815.3    0.00       0    62.8
 264    2:40   53.0    79    2.7     6      5.2   815.2    0.00       0    62.7
 264    2:50   53.2    78    1.4    32      4.8   815.2    0.00       0    62.7
 264    3:00   53.0    78    1.5   285      3.7   815.2    0.00       0    62.6
 264    3:10   53.4    76    1.3   231      2.7   815.2    0.00       0    62.5
 264    3:20   52.9    79    0.9   325      2.9   815.2    0.00       0    62.4
 264    3:30   51.8    81    1.0   193      2.5   815.2    0.00       0    62.3
 264    3:40   51.0    84    0.4   159      1.5   815.2    0.00       0    62.3
 264    3:50   50.2    86    1.5   153      2.1   815.2    0.00       0    62.2
 264    4:00   50.1    86    0.5   168      2.0   815.1    0.00       0    62.1
 264    4:10   50.3    85    0.2   140      0.8   815.1    0.00       0    62.0
 264    4:20   50.1    86    0.4   185      2.3   815.0    0.00       0    61.9
 264    4:30   50.5    84    0.3   147      1.8   815.0    0.00       0    61.8
 264    4:40   49.9    86    1.4   151      2.9   815.1    0.00       0    61.8
 264    4:50   49.7    86    2.2   134      2.9   815.1    0.00       0    61.7
 264    5:00   49.7    87    2.5   132      3.6   815.0    0.00       0    61.6
 264    5:10   49.9    86    2.3   106      3.3   815.1    0.00       0    61.5
 264    5:20   49.7    86    2.2   100      3.4   815.2    0.00       0    61.4
 264    5:30   50.2    84    2.5   120      3.3   815.2    0.00       2    61.4
 264    5:40   50.6    84    2.7   122      3.5   815.3    0.00       5    61.3
 264    5:50   50.9    83    3.6   119      5.2   815.2    0.00      29    61.2
 264    6:00   51.7    81    2.4   143      3.9   815.2    0.00      33    61.1

Return to Tonopah, Nevada graphs page.


Western Regional Climate Center,wrcc@dri.edu